Time;durP1;ratioP1;P1;durP2;ratioP2;P2;SDS_P1;SDS_P2;PMS_P1;PMS_P2;Temp;Humidity;BMP_temperature;BMP_pressure;BME280_temperature;BME280_humidity;BME280_pressure;Samples;Min_cycle;Max_cycle;Signal;HPM_P1;HPM_P2
2022/04/01 00:00:56;;;;;;;1.10;1.00;;;2.60;99.90;;;;;;5050686;28;21028;-63
2022/04/01 00:03:24;;;;;;;1.37;0.83;;;2.60;99.90;;;;;;5051091;28;20582;-62
2022/04/01 00:05:54;;;;;;;1.40;0.90;;;2.60;99.90;;;;;;5051069;28;20850;-63
2022/04/01 00:08:22;;;;;;;0.97;0.80;;;2.70;99.90;;;;;;5050973;28;20470;-62
2022/04/01 00:10:50;;;;;;;2.57;0.93;;;2.60;99.90;;;;;;5050968;28;20504;-62
2022/04/01 00:13:18;;;;;;;1.57;0.70;;;2.60;99.90;;;;;;5051098;28;20476;-62
2022/04/01 00:15:47;;;;;;;1.87;0.97;;;2.60;99.90;;;;;;5050623;28;20482;-62
2022/04/01 00:18:16;;;;;;;1.60;0.80;;;2.60;99.90;;;;;;5050679;28;20467;-62
2022/04/01 00:20:44;;;;;;;0.70;0.70;;;2.60;99.90;;;;;;5050144;28;20488;-62
2022/04/01 00:23:14;;;;;;;2.53;0.87;;;2.60;99.90;;;;;;5050902;28;20481;-63
2022/04/01 00:25:43;;;;;;;1.33;0.87;;;2.60;99.90;;;;;;5050508;28;20566;-62
2022/04/01 00:28:11;;;;;;;1.27;0.80;;;2.60;99.90;;;;;;5050856;28;20837;-62
2022/04/01 00:30:40;;;;;;;2.77;0.70;;;2.60;99.90;;;;;;5049079;28;20498;-62
2022/04/01 00:33:14;;;;;;;1.03;0.73;;;2.60;99.90;;;;;;5050885;28;20474;-62
2022/04/01 00:35:43;;;;;;;3.03;1.10;;;2.60;99.90;;;;;;5049208;28;20503;-62
2022/04/01 00:38:13;;;;;;;3.00;0.90;;;2.60;99.90;;;;;;5049030;28;20493;-62
2022/04/01 00:40:41;;;;;;;2.37;0.93;;;2.60;99.90;;;;;;5049901;28;20559;-62
2022/04/01 00:43:10;;;;;;;2.07;0.80;;;2.60;99.90;;;;;;5050503;28;20480;-63
2022/04/01 00:45:38;;;;;;;2.80;0.90;;;2.60;99.90;;;;;;5050329;28;20466;-63
2022/04/01 00:48:07;;;;;;;1.50;0.90;;;2.50;99.90;;;;;;5050529;28;20530;-62
2022/04/01 00:50:35;;;;;;;2.13;1.00;;;2.60;99.90;;;;;;5050332;28;20490;-62
2022/04/01 00:53:04;;;;;;;1.30;0.80;;;2.60;99.90;;;;;;5050726;28;20868;-62
2022/04/01 00:55:34;;;;;;;1.90;0.90;;;2.60;99.90;;;;;;5048949;28;20467;-62
2022/04/01 00:58:04;;;;;;;0.93;0.60;;;2.50;99.90;;;;;;5050528;28;20537;-63
2022/04/01 01:00:32;;;;;;;1.53;1.00;;;2.60;99.90;;;;;;5049702;28;20495;-62
2022/04/01 01:03:01;;;;;;;2.60;0.80;;;2.60;99.90;;;;;;5050669;28;20513;-62
2022/04/01 01:05:30;;;;;;;1.93;0.90;;;2.60;99.90;;;;;;5050650;28;20467;-62
2022/04/01 01:07:59;;;;;;;1.93;1.00;;;2.60;99.90;;;;;;5050153;28;20867;-62
2022/04/01 01:10:27;;;;;;;1.63;0.77;;;2.60;99.90;;;;;;5050363;28;20470;-63
2022/04/01 01:12:57;;;;;;;1.00;0.70;;;2.60;99.90;;;;;;5049117;28;20551;-62
2022/04/01 01:15:26;;;;;;;1.27;0.80;;;2.70;99.90;;;;;;5049857;28;20469;-63
2022/04/01 01:17:55;;;;;;;1.60;0.90;;;2.60;99.90;;;;;;5049943;28;20466;-62
2022/04/01 01:20:24;;;;;;;1.43;0.93;;;2.60;99.90;;;;;;5049825;28;20814;-62
2022/04/01 01:22:53;;;;;;;3.23;1.23;;;2.60;99.90;;;;;;5048899;28;20491;-62
2022/04/01 01:25:23;;;;;;;2.60;0.83;;;2.60;99.90;;;;;;5048714;28;20818;-62
2022/04/01 01:27:51;;;;;;;1.20;0.90;;;2.60;99.90;;;;;;5050333;28;21058;-62
2022/04/01 01:30:19;;;;;;;1.37;0.70;;;2.60;99.90;;;;;;5048559;28;20494;-62
2022/04/01 01:32:47;;;;;;;1.47;0.70;;;2.60;99.90;;;;;;5050194;28;20477;-62
2022/04/01 01:35:16;;;;;;;2.93;1.00;;;2.60;99.90;;;;;;5049855;28;20506;-62
2022/04/01 01:37:44;;;;;;;0.90;0.80;;;2.60;99.90;;;;;;5050001;28;20488;-62
2022/04/01 01:40:13;;;;;;;1.00;0.70;;;2.60;99.90;;;;;;5049533;28;20485;-62
2022/04/01 01:42:43;;;;;;;0.90;0.80;;;2.60;99.90;;;;;;5049885;28;20476;-62
2022/04/01 01:45:11;;;;;;;1.70;1.03;;;2.60;99.90;;;;;;5050025;28;20503;-62
2022/04/01 01:47:39;;;;;;;1.53;0.93;;;2.60;99.90;;;;;;5048703;28;21008;-62
2022/04/01 01:55:39;;;;;;;2.47;1.10;;;2.60;99.90;;;;;;5049941;28;20481;-62
2022/04/01 01:58:09;;;;;;;1.87;0.80;;;2.60;99.90;;;;;;5052145;28;20522;-62
2022/04/01 02:00:38;;;;;;;1.23;0.60;;;2.60;99.90;;;;;;5051409;28;20470;-62
2022/04/01 02:03:06;;;;;;;2.17;1.10;;;2.60;99.90;;;;;;5053259;28;20546;-63
2022/04/01 02:05:35;;;;;;;2.33;0.93;;;2.60;99.90;;;;;;5053123;28;20486;-62
2022/04/01 02:08:05;;;;;;;2.80;0.70;;;2.60;99.90;;;;;;5053168;28;20835;-62
2022/04/01 02:10:34;;;;;;;1.47;0.87;;;2.50;99.90;;;;;;5051206;28;20475;-62
2022/04/01 02:13:05;;;;;;;2.73;0.80;;;2.60;99.90;;;;;;5051852;28;20486;-63
2022/04/01 02:15:34;;;;;;;3.53;0.80;;;2.60;99.90;;;;;;5048213;28;20488;-62
2022/04/01 02:18:05;;;;;;;2.37;0.90;;;2.60;99.90;;;;;;5031572;28;20519;-62
2022/04/01 02:20:34;;;;;;;3.67;0.70;;;2.60;99.90;;;;;;5032279;28;20501;-62
2022/04/01 02:23:03;;;;;;;1.90;0.63;;;2.50;99.90;;;;;;5033082;28;20953;-63
2022/04/01 02:25:32;;;;;;;3.23;0.80;;;2.50;99.90;;;;;;5031633;28;20504;-62
2022/04/01 02:28:00;;;;;;;1.37;0.60;;;2.60;99.90;;;;;;5031945;28;20474;-62
2022/04/01 02:30:30;;;;;;;2.40;0.83;;;2.60;99.90;;;;;;5031279;28;20475;-62
2022/04/01 02:33:18;;;;;;;0.60;0.60;;;2.50;99.90;;;;;;5052729;28;20933;-63
2022/04/01 02:35:51;;;;;;;2.07;0.87;;;2.50;99.90;;;;;;5051494;28;20481;-63
2022/04/01 02:38:20;;;;;;;2.87;0.80;;;2.50;99.90;;;;;;5051357;28;20533;-62
2022/04/01 02:40:48;;;;;;;1.97;0.80;;;2.50;99.90;;;;;;5050375;28;20502;-62
2022/04/01 02:43:16;;;;;;;2.13;0.67;;;2.50;99.90;;;;;;5052662;28;20479;-62
2022/04/01 02:45:48;;;;;;;1.83;0.87;;;2.50;99.90;;;;;;5050995;28;20510;-62
2022/04/01 02:48:18;;;;;;;0.87;0.50;;;2.60;99.90;;;;;;5041852;28;20486;-62
2022/04/01 02:51:05;;;;;;;1.47;0.80;;;2.60;99.90;;;;;;5052490;28;20846;-63
2022/04/01 02:53:34;;;;;;;1.73;0.80;;;2.60;99.90;;;;;;5050945;28;20504;-62
2022/04/01 02:56:04;;;;;;;1.10;0.63;;;2.60;99.90;;;;;;5050762;28;20564;-62
2022/04/01 02:58:32;;;;;;;1.87;0.70;;;2.50;99.90;;;;;;5051812;28;20519;-62
2022/04/01 03:01:00;;;;;;;2.83;0.60;;;2.50;99.90;;;;;;5050780;28;20537;-62
2022/04/01 03:03:31;;;;;;;1.20;0.80;;;2.60;99.90;;;;;;5051148;28;20504;-62
2022/04/01 03:06:04;;;;;;;1.17;0.80;;;2.50;99.90;;;;;;5050514;28;20528;-62
2022/04/01 03:08:32;;;;;;;1.33;0.80;;;2.50;99.90;;;;;;5051751;28;20524;-62
2022/04/01 03:11:00;;;;;;;1.60;0.80;;;2.60;99.90;;;;;;5084398;28;20830;-63
2022/04/01 03:13:31;;;;;;;1.33;0.63;;;2.50;99.90;;;;;;5050704;28;20506;-62
2022/04/01 03:16:18;;;;;;;1.03;0.60;;;2.50;99.90;;;;;;5013307;28;20479;-62
2022/04/01 03:18:57;;;;;;;1.00;0.70;;;2.50;99.90;;;;;;5032239;28;20482;-63
2022/04/01 03:21:26;;;;;;;2.00;1.00;;;2.60;99.90;;;;;;5011134;28;20470;-62
2022/04/01 03:23:54;;;;;;;2.17;0.87;;;2.60;99.90;;;;;;5013407;28;20500;-62
2022/04/01 03:26:23;;;;;;;2.50;0.70;;;2.60;99.90;;;;;;5032142;28;20503;-62
2022/04/01 03:29:06;;;;;;;3.67;1.10;;;2.60;99.90;;;;;;5030035;28;20489;-62
2022/04/01 03:31:35;;;;;;;1.37;0.90;;;2.60;99.90;;;;;;5030286;28;20482;-62
2022/04/01 03:34:06;;;;;;;2.40;0.90;;;2.60;99.90;;;;;;5046902;28;20515;-62
2022/04/01 03:36:35;;;;;;;1.83;1.00;;;2.50;99.90;;;;;;5030388;28;20471;-62
2022/04/01 03:39:04;;;;;;;2.53;0.80;;;2.50;99.90;;;;;;5029607;28;20491;-62
2022/04/01 03:41:42;;;;;;;2.07;0.70;;;2.50;99.90;;;;;;5030110;28;20501;-62
2022/04/01 03:44:11;;;;;;;1.27;0.67;;;2.50;99.90;;;;;;5031355;28;20481;-62
2022/04/01 03:46:48;;;;;;;2.50;0.67;;;2.50;99.90;;;;;;5036022;28;20479;-62
2022/04/01 03:49:23;;;;;;;2.83;0.80;;;2.50;99.90;;;;;;5030126;28;20484;-62
2022/04/01 03:51:56;;;;;;;1.10;0.77;;;2.50;99.90;;;;;;5030290;28;20480;-62
2022/04/01 03:54:26;;;;;;;1.87;0.87;;;2.50;99.90;;;;;;5033386;28;20471;-62
2022/04/01 03:57:04;;;;;;;2.63;1.00;;;2.50;99.90;;;;;;5048163;28;20506;-62
2022/04/01 03:59:57;;;;;;;1.90;0.77;;;2.40;99.90;;;;;;5050650;28;20993;-62
2022/04/01 04:02:41;;;;;;;0.80;0.80;;;2.50;99.90;;;;;;5050916;28;20482;-62
2022/04/01 04:05:11;;;;;;;2.43;1.00;;;2.50;99.90;;;;;;5049567;28;20562;-62
2022/04/01 04:07:41;;;;;;;3.37;1.07;;;2.50;99.90;;;;;;5051004;28;20490;-62
2022/04/01 04:10:14;;;;;;;2.17;0.67;;;2.50;99.90;;;;;;5049269;28;20482;-62
2022/04/01 04:13:03;;;;;;;1.33;0.80;;;2.50;99.90;;;;;;5050688;28;20955;-62
2022/04/01 04:15:40;;;;;;;3.13;0.97;;;2.50;99.90;;;;;;5049169;28;20820;-62
2022/04/01 04:18:13;;;;;;;1.40;0.90;;;2.50;99.90;;;;;;5082663;28;20475;-62
2022/04/01 04:20:58;;;;;;;1.77;1.03;;;2.50;99.90;;;;;;5045222;28;20537;-63
2022/04/01 04:23:33;;;;;;;2.43;0.87;;;2.40;99.90;;;;;;5049451;28;20537;-62
2022/04/01 04:26:11;;;;;;;3.77;1.43;;;2.40;99.90;;;;;;5050618;28;20957;-62
2022/04/01 04:28:48;;;;;;;3.77;1.10;;;2.40;99.90;;;;;;5049292;28;20475;-63
2022/04/01 04:31:48;;;;;;;0.87;0.70;;;2.50;99.90;;;;;;5047353;28;20483;-62
2022/04/01 04:34:19;;;;;;;2.57;0.90;;;2.50;99.90;;;;;;5049430;28;20537;-62
2022/04/01 04:36:51;;;;;;;4.83;1.20;;;2.50;99.90;;;;;;5049293;28;20471;-62
2022/04/01 04:39:31;;;;;;;1.80;0.90;;;2.50;99.90;;;;;;5048703;28;20502;-62
2022/04/01 04:42:01;;;;;;;2.60;1.10;;;2.50;99.90;;;;;;5049498;28;20475;-62
2022/04/01 04:44:30;;;;;;;2.03;1.13;;;2.50;99.90;;;;;;5049320;28;20471;-63
2022/04/01 04:47:00;;;;;;;2.53;1.07;;;2.50;99.90;;;;;;5049342;28;20480;-62
2022/04/01 04:49:30;;;;;;;2.67;1.00;;;2.50;99.90;;;;;;5049024;28;20477;-62
2022/04/01 04:52:01;;;;;;;4.13;1.40;;;2.50;99.90;;;;;;5049292;28;20505;-62
2022/04/01 04:54:38;;;;;;;1.57;1.13;;;2.50;99.90;;;;;;5048624;28;20472;-62
2022/04/01 04:57:21;;;;;;;3.27;1.20;;;2.50;99.90;;;;;;5049107;28;20474;-62
2022/04/01 04:59:51;;;;;;;2.47;1.20;;;2.50;99.90;;;;;;5043229;28;20528;-62
2022/04/01 05:02:35;;;;;;;2.80;1.07;;;2.60;99.90;;;;;;5032431;28;20463;-63
2022/04/01 05:05:07;;;;;;;1.30;1.00;;;2.50;99.90;;;;;;5038374;28;20907;-62
2022/04/01 05:08:18;;;;;;;3.60;1.03;;;2.50;99.90;;;;;;5045627;28;20548;-62
2022/04/01 05:11:09;;;;;;;5.00;1.43;;;2.50;99.90;;;;;;5044464;28;20478;-62
2022/04/01 05:13:46;;;;;;;1.10;0.87;;;2.50;99.90;;;;;;5045492;28;20473;-62
2022/04/01 05:16:29;;;;;;;3.47;1.23;;;2.50;99.90;;;;;;5050571;28;20487;-62
2022/04/01 05:19:04;;;;;;;2.17;1.13;;;2.60;99.90;;;;;;5048503;28;20997;-62
2022/04/01 05:21:42;;;;;;;4.17;1.47;;;2.50;99.90;;;;;;5047172;28;20880;-62
2022/04/01 05:24:15;;;;;;;3.10;1.27;;;2.60;99.90;;;;;;5048832;28;20503;-62
2022/04/01 05:26:52;;;;;;;2.23;1.07;;;2.60;99.90;;;;;;5048856;28;20988;-62
2022/04/01 05:29:47;;;;;;;2.67;1.43;;;2.60;99.90;;;;;;5041466;28;20471;-62
2022/04/01 05:32:21;;;;;;;4.03;1.30;;;2.60;99.90;;;;;;5052384;28;20487;-62
2022/04/01 05:34:51;;;;;;;2.63;1.33;;;2.60;99.90;;;;;;5051412;28;20521;-62
2022/04/01 05:37:19;;;;;;;3.23;1.60;;;2.60;99.90;;;;;;5048398;28;20490;-62
2022/04/01 05:39:50;;;;;;;3.57;1.73;;;2.60;99.90;;;;;;5032605;28;20485;-62
2022/04/01 05:42:22;;;;;;;2.27;1.37;;;2.60;99.90;;;;;;5067622;28;20482;-62
2022/04/01 05:45:12;;;;;;;3.43;1.60;;;2.60;99.90;;;;;;5034150;28;20464;-62
2022/04/01 05:47:41;;;;;;;2.53;1.60;;;2.60;99.90;;;;;;5050060;28;20470;-64
2022/04/01 05:50:10;;;;;;;3.57;1.70;;;2.60;99.90;;;;;;5053325;28;20478;-62
2022/04/01 05:52:39;;;;;;;2.50;1.73;;;2.60;99.90;;;;;;5045249;28;20471;-62
2022/04/01 05:55:11;;;;;;;5.33;2.10;;;2.60;99.90;;;;;;5051967;28;20483;-62
2022/04/01 05:57:40;;;;;;;3.20;1.80;;;2.70;99.90;;;;;;5048892;28;20502;-62
2022/04/01 06:00:12;;;;;;;4.00;1.80;;;2.70;99.90;;;;;;5051302;28;20530;-62
2022/04/01 06:03:16;;;;;;;7.00;1.83;;;2.60;99.90;;;;;;5053593;28;20470;-62
2022/04/01 06:05:49;;;;;;;4.17;1.97;;;2.60;99.90;;;;;;5049780;28;20497;-62
2022/04/01 06:08:24;;;;;;;4.43;1.77;;;2.70;99.90;;;;;;5049605;28;20478;-62
2022/04/01 06:11:02;;;;;;;3.13;2.03;;;2.60;99.90;;;;;;5045014;28;20477;-62
2022/04/01 06:14:03;;;;;;;3.23;1.43;;;2.60;99.90;;;;;;5013969;28;20525;-62
2022/04/01 06:17:02;;;;;;;3.37;1.70;;;2.60;99.90;;;;;;5049970;28;20475;-62
2022/04/01 06:19:37;;;;;;;4.73;1.90;;;2.60;99.90;;;;;;5052586;28;20893;-62
2022/04/01 06:22:09;;;;;;;4.30;2.33;;;2.60;99.90;;;;;;5052956;28;20470;-62
2022/04/01 06:24:49;;;;;;;5.63;1.70;;;2.70;99.90;;;;;;5051338;28;20474;-62
2022/04/01 06:27:25;;;;;;;3.90;1.50;;;2.70;99.90;;;;;;5051309;28;20475;-62
2022/04/01 06:30:03;;;;;;;3.13;1.63;;;2.70;99.90;;;;;;5052799;28;20465;-62
2022/04/01 06:32:38;;;;;;;6.87;2.10;;;2.70;99.90;;;;;;5047195;28;20471;-62
2022/04/01 06:35:18;;;;;;;3.43;1.90;;;2.70;99.90;;;;;;5051471;28;20505;-62
2022/04/01 06:38:03;;;;;;;4.37;2.00;;;2.80;99.90;;;;;;5037573;28;20477;-62
2022/04/01 06:40:41;;;;;;;4.20;1.83;;;2.80;99.90;;;;;;5029122;28;20486;-62
2022/04/01 06:43:11;;;;;;;3.73;2.10;;;2.80;99.90;;;;;;5047648;28;20474;-63
2022/04/01 06:45:57;;;;;;;3.50;2.00;;;2.80;99.90;;;;;;5052430;28;20482;-63
2022/04/01 06:48:41;;;;;;;3.80;1.87;;;2.80;99.90;;;;;;5050911;28;20851;-62
2022/04/01 06:51:40;;;;;;;5.20;2.40;;;2.90;99.90;;;;;;5031608;28;20490;-62
2022/04/01 06:54:26;;;;;;;6.70;2.40;;;2.90;99.90;;;;;;5038156;28;20556;-62
2022/04/01 06:57:15;;;;;;;2.93;2.03;;;2.90;99.90;;;;;;5052269;28;20478;-62
2022/04/01 07:00:05;;;;;;;4.17;2.00;;;2.90;99.90;;;;;;5050886;28;21036;-61
2022/04/01 07:02:35;;;;;;;5.60;2.67;;;2.90;99.90;;;;;;5052163;28;20474;-62
2022/04/01 07:05:05;;;;;;;5.30;2.50;;;2.90;99.90;;;;;;5052096;28;20475;-62
2022/04/01 07:07:33;;;;;;;4.97;2.33;;;2.90;99.90;;;;;;5052018;28;20553;-62
2022/04/01 07:10:01;;;;;;;4.43;2.33;;;3.10;99.90;;;;;;5051388;28;20801;-62
2022/04/01 07:12:30;;;;;;;5.63;2.60;;;3.10;99.90;;;;;;5051059;28;20474;-62
2022/04/01 07:14:59;;;;;;;4.50;2.63;;;3.10;99.90;;;;;;5050653;28;20474;-62
2022/04/01 07:17:28;;;;;;;6.17;2.97;;;3.10;99.90;;;;;;5051320;28;20554;-62
2022/04/01 07:19:56;;;;;;;6.10;2.80;;;3.10;99.90;;;;;;5051159;28;20494;-62
2022/04/01 07:22:24;;;;;;;5.40;2.80;;;3.10;99.90;;;;;;5049756;28;20461;-63
2022/04/01 07:24:52;;;;;;;5.23;3.03;;;3.20;99.90;;;;;;5048910;28;20492;-62
2022/04/01 07:27:21;;;;;;;4.77;2.70;;;3.20;99.90;;;;;;5051688;28;20607;-62
2022/04/01 07:29:49;;;;;;;4.10;2.83;;;3.20;99.90;;;;;;5052457;28;20471;-62
2022/04/01 07:32:33;;;;;;;6.40;3.07;;;3.20;99.90;;;;;;5064775;28;20542;-62
2022/04/01 07:35:05;;;;;;;6.70;3.27;;;3.20;99.90;;;;;;5049357;28;20525;-62
2022/04/01 07:37:34;;;;;;;4.77;2.77;;;3.30;99.90;;;;;;5051621;28;20468;-62
2022/04/01 07:40:24;;;;;;;6.53;2.73;;;3.30;99.90;;;;;;5051070;28;20482;-62
2022/04/01 07:42:52;;;;;;;6.00;2.77;;;3.30;99.90;;;;;;5051483;28;20526;-63
2022/04/01 07:45:21;;;;;;;4.90;3.30;;;3.30;99.90;;;;;;5051182;28;20488;-62
2022/04/01 07:47:50;;;;;;;4.43;2.87;;;3.40;99.90;;;;;;5051247;28;20472;-62
2022/04/01 07:50:22;;;;;;;4.70;2.90;;;3.40;99.90;;;;;;5051235;28;20902;-62
2022/04/01 07:52:51;;;;;;;5.23;2.93;;;3.40;99.90;;;;;;5050758;28;20531;-63
2022/04/01 07:55:20;;;;;;;4.77;3.37;;;3.50;99.90;;;;;;5051173;28;21009;-62
2022/04/01 07:57:49;;;;;;;6.03;3.40;;;3.40;99.90;;;;;;5051218;28;20573;-62
2022/04/01 08:00:38;;;;;;;4.47;3.07;;;3.50;99.90;;;;;;5050276;28;21020;-62
2022/04/01 08:03:06;;;;;;;4.30;3.50;;;3.50;99.90;;;;;;5050991;28;20556;-62
2022/04/01 08:05:36;;;;;;;5.53;3.20;;;3.60;99.90;;;;;;5050923;28;21014;-62
2022/04/01 08:08:05;;;;;;;6.20;3.87;;;3.60;99.90;;;;;;5050316;28;20966;-62
2022/04/01 08:10:33;;;;;;;6.93;3.40;;;3.60;99.90;;;;;;5049778;28;20494;-62
2022/04/01 08:13:01;;;;;;;5.33;3.53;;;3.60;99.90;;;;;;5050243;28;20830;-63
2022/04/01 08:15:29;;;;;;;5.20;3.27;;;3.60;99.90;;;;;;5046764;28;20493;-62
2022/04/01 08:17:59;;;;;;;4.50;3.47;;;3.60;99.90;;;;;;5047767;28;20467;-62
2022/04/01 08:20:27;;;;;;;5.13;3.10;;;3.70;99.90;;;;;;5047702;28;20891;-62
2022/04/01 08:22:57;;;;;;;4.77;3.20;;;3.70;99.90;;;;;;5044104;28;20824;-63
2022/04/01 08:25:25;;;;;;;6.63;3.33;;;3.70;99.90;;;;;;5042835;28;20467;-62
2022/04/01 08:28:03;;;;;;;7.30;3.50;;;3.70;99.90;;;;;;5044985;28;20506;-62
2022/04/01 08:30:32;;;;;;;6.20;3.43;;;3.70;99.90;;;;;;5042608;28;20975;-62
2022/04/01 08:33:00;;;;;;;6.63;3.83;;;3.80;99.90;;;;;;5042355;28;20476;-62
2022/04/01 08:35:29;;;;;;;6.93;3.90;;;3.80;99.90;;;;;;5052069;28;20492;-62
2022/04/01 08:37:58;;;;;;;6.07;3.60;;;3.80;99.90;;;;;;5051756;28;20484;-62
2022/04/01 08:40:29;;;;;;;6.77;3.13;;;3.80;99.90;;;;;;5049253;28;20472;-62
2022/04/01 08:42:57;;;;;;;4.37;3.50;;;3.90;99.90;;;;;;5049985;28;20985;-62
2022/04/01 08:45:26;;;;;;;4.53;3.13;;;3.90;99.90;;;;;;5042740;28;20805;-62
2022/04/01 08:47:56;;;;;;;7.70;3.77;;;3.90;99.90;;;;;;5044074;28;20482;-63
2022/04/01 08:50:24;;;;;;;4.33;3.07;;;3.90;99.90;;;;;;5045869;28;21004;-63
2022/04/01 08:52:52;;;;;;;6.97;3.10;;;3.90;99.90;;;;;;5045794;28;20471;-62
2022/04/01 08:55:22;;;;;;;5.20;2.90;;;3.90;99.90;;;;;;5045554;28;20578;-63
2022/04/01 08:57:51;;;;;;;4.13;2.60;;;4.00;99.90;;;;;;5044294;28;20494;-62
2022/04/01 09:00:40;;;;;;;5.40;3.20;;;3.90;99.90;;;;;;5044004;28;20572;-62
2022/04/01 09:03:11;;;;;;;7.87;2.80;;;4.00;99.90;;;;;;5039587;28;20479;-62
2022/04/01 09:05:46;;;;;;;5.83;3.00;;;4.00;99.90;;;;;;5048584;28;20531;-62
2022/04/01 09:08:15;;;;;;;6.50;2.73;;;4.00;99.90;;;;;;5048022;28;20480;-62
2022/04/01 09:10:54;;;;;;;7.30;2.93;;;4.10;99.90;;;;;;5049173;28;20476;-62
2022/04/01 09:13:24;;;;;;;5.37;2.77;;;4.10;99.90;;;;;;5049234;28;20476;-61
2022/04/01 09:15:52;;;;;;;6.77;3.17;;;4.20;99.90;;;;;;5048703;28;20468;-61
2022/04/01 09:18:38;;;;;;;4.10;2.87;;;4.20;99.90;;;;;;5047082;28;20482;-62
2022/04/01 09:21:07;;;;;;;4.90;3.17;;;4.20;99.90;;;;;;5048943;28;20468;-63
2022/04/01 09:23:36;;;;;;;8.07;4.83;;;4.20;99.90;;;;;;5049291;28;20470;-62
2022/04/01 09:26:06;;;;;;;6.07;3.10;;;4.20;99.90;;;;;;5049614;28;20545;-62
2022/04/01 09:28:38;;;;;;;4.90;2.90;;;4.20;99.90;;;;;;5047960;28;20476;-62
2022/04/01 09:31:09;;;;;;;7.47;3.23;;;4.40;99.90;;;;;;5048889;28;20550;-63
2022/04/01 09:33:57;;;;;;;5.00;2.80;;;4.40;99.90;;;;;;5049380;28;20837;-62
2022/04/01 09:36:27;;;;;;;4.43;3.00;;;4.50;99.90;;;;;;5048333;28;20481;-63
2022/04/01 09:38:58;;;;;;;4.63;3.43;;;4.50;99.90;;;;;;5048559;28;20491;-62
2022/04/01 09:41:36;;;;;;;4.10;3.30;;;4.50;99.90;;;;;;5049382;28;20490;-62
2022/04/01 09:44:26;;;;;;;5.03;2.70;;;4.60;99.90;;;;;;5048766;28;20466;-63
2022/04/01 09:46:58;;;;;;;4.23;2.53;;;4.60;99.90;;;;;;5047567;28;20473;-61
2022/04/01 09:49:31;;;;;;;4.63;2.67;;;4.60;99.90;;;;;;5048782;28;20561;-62
2022/04/01 09:52:05;;;;;;;5.97;2.47;;;4.60;99.90;;;;;;5048842;28;20833;-61
2022/04/01 09:54:34;;;;;;;4.80;2.13;;;4.60;99.90;;;;;;5048810;28;20484;-63
2022/04/01 09:57:06;;;;;;;4.27;2.63;;;4.60;99.90;;;;;;5047526;28;20484;-63
2022/04/01 09:59:36;;;;;;;5.00;3.10;;;4.60;99.90;;;;;;5048277;28;20532;-62
2022/04/01 10:02:05;;;;;;;4.07;2.80;;;4.60;99.90;;;;;;5047156;28;20484;-62
2022/04/01 10:04:34;;;;;;;7.23;2.97;;;4.60;99.90;;;;;;5047170;28;20488;-62
2022/04/01 10:07:04;;;;;;;5.03;2.53;;;4.50;99.90;;;;;;5047082;28;20494;-62
2022/04/01 10:09:32;;;;;;;4.33;2.57;;;4.50;99.90;;;;;;5048447;28;20511;-63
2022/04/01 10:12:26;;;;;;;4.87;2.50;;;4.60;99.90;;;;;;5049834;28;20479;-62
2022/04/01 10:14:58;;;;;;;5.70;2.47;;;4.70;99.90;;;;;;5052996;28;20787;-61
2022/04/01 10:17:42;;;;;;;3.50;2.50;;;4.70;99.90;;;;;;5052673;28;20483;-61
2022/04/01 10:20:13;;;;;;;5.47;2.50;;;4.80;99.90;;;;;;5052767;28;20489;-62
2022/04/01 10:22:42;;;;;;;5.13;2.53;;;4.80;99.90;;;;;;5052831;28;20477;-61
2022/04/01 10:25:16;;;;;;;3.70;2.37;;;4.80;99.90;;;;;;5052825;28;20478;-61
2022/04/01 10:27:49;;;;;;;4.07;2.40;;;4.90;99.90;;;;;;5053015;28;20972;-62
2022/04/01 10:30:21;;;;;;;4.23;2.40;;;4.90;99.90;;;;;;5052714;28;20540;-61
2022/04/01 10:32:49;;;;;;;3.70;2.63;;;4.90;99.90;;;;;;5052840;28;20565;-61
2022/04/01 10:35:26;;;;;;;4.13;2.50;;;4.80;99.90;;;;;;5052704;28;20479;-61
2022/04/01 10:37:56;;;;;;;4.43;2.63;;;4.80;99.90;;;;;;5052897;28;20534;-61
2022/04/01 10:40:31;;;;;;;3.10;2.17;;;4.80;99.90;;;;;;5052370;28;20464;-62
2022/04/01 10:43:11;;;;;;;3.63;2.30;;;4.80;99.90;;;;;;5053076;28;20482;-61
2022/04/01 10:45:40;;;;;;;3.13;2.47;;;4.70;99.90;;;;;;5047989;28;20561;-61
2022/04/01 10:54:00;;;;;;;3.50;2.10;;;4.90;99.90;;;;;;5052559;28;20500;-62
2022/04/01 10:56:33;;;;;;;4.83;2.13;;;4.90;99.90;;;;;;5053317;28;20468;-61
2022/04/01 10:59:16;;;;;;;3.97;2.37;;;4.80;99.90;;;;;;5055580;28;20469;-61
2022/04/01 11:02:04;;;;;;;5.80;2.33;;;5.00;99.90;;;;;;5051800;28;20471;-61
2022/04/01 11:04:35;;;;;;;3.10;2.17;;;5.00;99.90;;;;;;5037678;28;20473;-62
2022/04/01 11:07:05;;;;;;;3.43;2.20;;;5.00;99.90;;;;;;5052319;28;20484;-62
2022/04/01 11:09:41;;;;;;;4.03;2.20;;;5.00;99.90;;;;;;5051537;28;20466;-62
2022/04/01 11:12:25;;;;;;;4.23;2.30;;;5.10;99.90;;;;;;5047946;28;21069;-61
2022/04/01 11:15:24;;;;;;;5.67;2.43;;;5.10;99.90;;;;;;5046547;28;20465;-61
2022/04/01 11:18:07;;;;;;;3.77;1.77;;;4.90;99.90;;;;;;5051841;28;20954;-62
2022/04/01 11:20:39;;;;;;;6.40;2.10;;;5.00;99.90;;;;;;5051245;28;20480;-62
2022/04/01 11:23:12;;;;;;;3.03;2.40;;;5.00;99.90;;;;;;5052039;28;20473;-61
2022/04/01 11:25:51;;;;;;;5.03;2.10;;;5.10;99.90;;;;;;5051630;28;20477;-62
2022/04/01 11:28:20;;;;;;;3.37;1.90;;;5.20;99.90;;;;;;5051774;28;20520;-62
2022/04/01 11:31:05;;;;;;;3.63;2.37;;;5.20;99.90;;;;;;5051214;28;20466;-62
2022/04/01 11:33:33;;;;;;;3.90;2.30;;;5.20;99.90;;;;;;5050569;28;20476;-62
2022/04/01 11:36:01;;;;;;;4.30;2.20;;;5.20;99.90;;;;;;5048111;28;20973;-62
2022/04/01 11:38:30;;;;;;;4.07;2.20;;;5.20;99.90;;;;;;5046080;28;20515;-61
2022/04/01 11:41:03;;;;;;;2.40;1.80;;;5.20;99.90;;;;;;5044711;28;20466;-61
2022/04/01 11:43:33;;;;;;;3.37;2.00;;;5.30;99.90;;;;;;5050857;28;20514;-63
2022/04/01 11:46:04;;;;;;;2.80;1.93;;;5.30;99.90;;;;;;5051146;28;20473;-62
2022/04/01 11:48:35;;;;;;;3.43;2.00;;;5.40;99.90;;;;;;5047837;28;20470;-63
2022/04/01 11:51:05;;;;;;;4.50;1.97;;;5.40;99.90;;;;;;5051029;28;20856;-62
2022/04/01 11:53:36;;;;;;;5.87;1.70;;;5.40;99.90;;;;;;5044338;28;20566;-61
2022/04/01 11:56:06;;;;;;;2.93;1.90;;;5.30;99.90;;;;;;5050460;28;20481;-62
2022/04/01 11:58:36;;;;;;;6.87;1.97;;;5.30;99.90;;;;;;5050915;28;20475;-62
2022/04/01 12:01:05;;;;;;;3.43;1.70;;;5.30;99.90;;;;;;5050194;28;20554;-61
2022/04/01 12:03:34;;;;;;;3.53;1.80;;;5.30;99.90;;;;;;5050217;28;20470;-61
2022/04/01 12:08:49;;;;;;;2.77;1.60;;;5.30;99.90;;;;;;5046727;28;20587;-62
2022/04/01 12:11:17;;;;;;;3.40;1.73;;;5.30;99.90;;;;;;5048619;28;20474;-61
2022/04/01 12:13:50;;;;;;;2.93;1.73;;;5.30;99.90;;;;;;5033769;28;20479;-62
2022/04/01 12:16:21;;;;;;;3.67;2.10;;;5.40;99.90;;;;;;5030537;28;20986;-61
2022/04/01 12:18:51;;;;;;;4.17;1.60;;;5.40;99.90;;;;;;5035472;28;20989;-61
2022/04/01 12:21:20;;;;;;;3.87;1.90;;;5.40;99.90;;;;;;5050904;28;20481;-61
2022/04/01 12:23:50;;;;;;;2.60;1.87;;;5.40;99.90;;;;;;5050242;28;20499;-61
2022/04/01 12:26:20;;;;;;;3.67;2.10;;;5.60;99.90;;;;;;5050840;28;20823;-61
2022/04/01 12:28:51;;;;;;;4.57;2.13;;;5.50;99.90;;;;;;5047600;28;20490;-62
2022/04/01 12:31:21;;;;;;;3.23;1.90;;;5.50;99.90;;;;;;5050710;28;20482;-62
2022/04/01 12:33:53;;;;;;;6.10;2.10;;;5.60;99.90;;;;;;5049168;28;20527;-61
2022/04/01 12:36:30;;;;;;;5.00;1.90;;;5.60;99.90;;;;;;5050560;28;20973;-61
2022/04/01 12:39:04;;;;;;;2.27;1.80;;;5.60;99.90;;;;;;5042547;28;20516;-61
2022/04/01 12:41:32;;;;;;;3.30;2.00;;;5.50;99.90;;;;;;5050340;28;20980;-62
2022/04/01 12:44:12;;;;;;;3.07;1.80;;;5.60;99.90;;;;;;5050095;28;20546;-61
2022/04/01 12:46:40;;;;;;;2.47;2.00;;;5.60;99.90;;;;;;5049754;28;20490;-61
2022/04/01 12:49:15;;;;;;;3.40;2.10;;;5.70;99.90;;;;;;5050082;28;20602;-61
2022/04/01 12:51:50;;;;;;;3.37;1.60;;;5.70;99.90;;;;;;5042978;28;20654;-61
2022/04/01 12:54:28;;;;;;;2.73;1.80;;;5.60;99.90;;;;;;5050396;28;20322;-61
2022/04/01 12:56:58;;;;;;;3.30;2.13;;;5.60;99.90;;;;;;5050262;28;20479;-62
2022/04/01 12:59:26;;;;;;;2.90;2.07;;;5.60;99.90;;;;;;5049672;28;20246;-61
2022/04/01 13:02:01;;;;;;;7.33;2.17;;;5.60;99.90;;;;;;5049876;28;20232;-62
2022/04/01 13:04:38;;;;;;;2.20;1.97;;;5.60;99.90;;;;;;5048974;28;20469;-61
2022/04/01 13:07:13;;;;;;;2.87;1.87;;;5.50;99.90;;;;;;5050342;28;20265;-61
2022/04/01 13:09:49;;;;;;;3.93;2.00;;;5.50;99.90;;;;;;5048532;28;20815;-61
2022/04/01 13:12:18;;;;;;;2.27;1.60;;;5.60;99.90;;;;;;5050140;28;20262;-61
2022/04/01 13:14:54;;;;;;;3.83;2.17;;;5.60;99.90;;;;;;5049476;28;20266;-61
2022/04/01 13:17:22;;;;;;;4.60;2.10;;;5.60;99.90;;;;;;5050057;28;20728;-61
2022/04/01 13:19:52;;;;;;;3.00;1.93;;;5.70;99.90;;;;;;5049862;28;20253;-61
2022/04/01 13:22:20;;;;;;;3.03;1.90;;;5.70;99.90;;;;;;5049695;28;20474;-61
2022/04/01 13:24:50;;;;;;;2.50;1.87;;;5.80;99.90;;;;;;5049892;28;20480;-61
2022/04/01 13:27:22;;;;;;;2.63;1.60;;;5.80;99.90;;;;;;5050201;28;20324;-62
2022/04/01 13:29:52;;;;;;;4.40;2.00;;;5.80;99.90;;;;;;5049730;28;20553;-61
2022/04/01 13:32:20;;;;;;;2.40;1.70;;;5.80;99.90;;;;;;5050293;28;20993;-61
2022/04/01 13:34:48;;;;;;;4.53;1.60;;;5.80;99.90;;;;;;5049942;28;21001;-62
2022/04/01 13:37:19;;;;;;;3.80;1.90;;;5.70;99.90;;;;;;5050123;28;20483;-61
2022/04/01 13:39:47;;;;;;;3.90;1.80;;;5.70;99.90;;;;;;5049534;28;20818;-61
2022/04/01 13:42:17;;;;;;;5.00;2.10;;;5.70;99.90;;;;;;5049761;28;20852;-61